Time;durP1;ratioP1;P1;durP2;ratioP2;P2;SDS_P1;SDS_P2;PMS_P1;PMS_P2;Temp;Humidity;BMP_temperature;BMP_pressure;BME280_temperature;BME280_humidity;BME280_pressure;Samples;Min_cycle;Max_cycle;Signal;HPM_P1;HPM_P2
2023/02/27 00:02:19;;;;;;;2.67;1.05;;;;;;;;;;5032454;28;20075;-65
2023/02/27 00:04:45;;;;;;;1.42;0.73;;;;;;;;;;5032399;28;20029;-64
2023/02/27 00:07:11;;;;;;;3.70;1.42;;;;;;;;;;5032363;28;20033;-65
2023/02/27 00:09:40;;;;;;;3.03;1.30;;;;;;;;;;5032338;28;20494;-65
2023/02/27 00:12:07;;;;;;;3.65;1.15;;;;;;;;;;5032522;28;20108;-65
2023/02/27 00:14:33;;;;;;;4.00;0.85;;;;;;;;;;5031917;28;20440;-65
2023/02/27 00:16:59;;;;;;;3.05;1.38;;;;;;;;;;5052338;28;20021;-64
2023/02/27 00:19:25;;;;;;;3.10;1.02;;;;;;;;;;5044917;28;20033;-65
2023/02/27 00:21:51;;;;;;;5.38;1.23;;;;;;;;;;5032016;28;20079;-65
2023/02/27 00:24:17;;;;;;;2.55;1.08;;;;;;;;;;5032893;28;20429;-65
2023/02/27 00:26:43;;;;;;;2.67;1.10;;;;;;;;;;5032199;28;20033;-65
2023/02/27 00:29:09;;;;;;;4.35;1.40;;;;;;;;;;5032427;28;20030;-65
2023/02/27 00:31:35;;;;;;;2.88;0.88;;;;;;;;;;5038751;28;20075;-65
2023/02/27 00:34:01;;;;;;;2.63;1.10;;;;;;;;;;5052128;28;20025;-65
2023/02/27 00:36:27;;;;;;;3.50;1.30;;;;;;;;;;5052204;28;20021;-65
2023/02/27 00:38:53;;;;;;;2.85;1.00;;;;;;;;;;5051861;28;20132;-65
2023/02/27 00:41:19;;;;;;;3.90;1.27;;;;;;;;;;5052196;28;20401;-65
2023/02/27 00:43:45;;;;;;;4.38;1.15;;;;;;;;;;5051813;28;20434;-65
2023/02/27 00:46:11;;;;;;;2.78;1.10;;;;;;;;;;5038406;28;20112;-65
2023/02/27 00:48:37;;;;;;;3.13;0.90;;;;;;;;;;5031424;28;20025;-65
2023/02/27 00:51:03;;;;;;;2.85;0.88;;;;;;;;;;5031063;28;20033;-65
2023/02/27 00:53:29;;;;;;;2.50;0.80;;;;;;;;;;5031894;28;20030;-65
2023/02/27 00:55:55;;;;;;;3.92;1.27;;;;;;;;;;5031238;28;20080;-65
2023/02/27 00:58:21;;;;;;;3.88;1.02;;;;;;;;;;5031708;28;20116;-65
2023/02/27 01:00:47;;;;;;;4.43;1.23;;;;;;;;;;5031549;28;20033;-65
2023/02/27 01:03:13;;;;;;;2.90;1.00;;;;;;;;;;5031478;28;20030;-65
2023/02/27 01:05:39;;;;;;;2.33;0.90;;;;;;;;;;5030851;28;20108;-65
2023/02/27 01:08:05;;;;;;;2.72;1.08;;;;;;;;;;5031148;28;20036;-65
2023/02/27 01:10:31;;;;;;;3.40;0.95;;;;;;;;;;5030450;28;20100;-66
2023/02/27 01:12:57;;;;;;;4.07;1.20;;;;;;;;;;5030467;28;20462;-65
2023/02/27 01:15:23;;;;;;;3.35;1.20;;;;;;;;;;5031119;28;20026;-65
2023/02/27 01:17:49;;;;;;;3.25;1.17;;;;;;;;;;5030932;28;20048;-65
2023/02/27 01:20:15;;;;;;;3.53;1.02;;;;;;;;;;5043997;28;20028;-65
2023/02/27 01:22:41;;;;;;;2.55;1.10;;;;;;;;;;5038900;28;20482;-65
2023/02/27 01:25:07;;;;;;;4.13;1.20;;;;;;;;;;5031475;28;20060;-65
2023/02/27 01:27:33;;;;;;;2.88;1.17;;;;;;;;;;5030816;28;20053;-65
2023/02/27 01:29:59;;;;;;;2.63;1.08;;;;;;;;;;5030585;28;20061;-65
2023/02/27 01:32:25;;;;;;;3.33;1.00;;;;;;;;;;5030900;28;20114;-65
2023/02/27 01:34:51;;;;;;;4.22;1.15;;;;;;;;;;5030617;28;20026;-65
2023/02/27 01:37:17;;;;;;;2.33;1.00;;;;;;;;;;5030621;28;20026;-65
2023/02/27 01:39:43;;;;;;;3.33;1.00;;;;;;;;;;5042819;28;20517;-65
2023/02/27 01:42:20;;;;;;;3.30;1.10;;;;;;;;;;5050828;28;20053;-66
2023/02/27 01:45:09;;;;;;;3.05;1.20;;;;;;;;;;5011043;28;20030;-65
2023/02/27 01:47:36;;;;;;;4.22;0.80;;;;;;;;;;5009944;28;20021;-65
2023/02/27 01:50:02;;;;;;;3.33;1.00;;;;;;;;;;5011166;28;20047;-65
2023/02/27 01:52:29;;;;;;;2.67;1.02;;;;;;;;;;5009906;28;20036;-65
2023/02/27 01:54:55;;;;;;;2.60;0.88;;;;;;;;;;5017716;28;20077;-66
2023/02/27 01:57:21;;;;;;;3.05;1.00;;;;;;;;;;5050009;28;20489;-65
2023/02/27 01:59:47;;;;;;;2.63;0.90;;;;;;;;;;5050561;28;20048;-65
2023/02/27 02:02:16;;;;;;;2.30;0.80;;;;;;;;;;5050761;28;20563;-66
2023/02/27 02:04:45;;;;;;;3.25;1.10;;;;;;;;;;5050570;28;20033;-65
2023/02/27 02:07:12;;;;;;;3.65;1.10;;;;;;;;;;5050616;28;20029;-65
2023/02/27 02:09:43;;;;;;;2.90;1.13;;;;;;;;;;5050658;28;20150;-65
2023/02/27 02:12:11;;;;;;;2.95;0.98;;;;;;;;;;5050824;28;20028;-65
2023/02/27 02:14:37;;;;;;;2.22;0.82;;;;;;;;;;5050757;28;20025;-65
2023/02/27 02:17:15;;;;;;;2.53;0.85;;;;;;;;;;5052070;28;20021;-66
2023/02/27 02:20:07;;;;;;;2.53;1.27;;;;;;;;;;5054400;28;20037;-65
2023/02/27 02:22:52;;;;;;;2.80;1.10;;;;;;;;;;5051950;28;20063;-66
2023/02/27 02:25:33;;;;;;;2.70;0.73;;;;;;;;;;5034543;28;20025;-65
2023/02/27 02:28:18;;;;;;;5.07;1.30;;;;;;;;;;5034011;28;20127;-66
2023/02/27 02:31:02;;;;;;;3.15;0.90;;;;;;;;;;5033853;28;20030;-65
2023/02/27 02:33:47;;;;;;;3.08;1.05;;;;;;;;;;5034250;28;20025;-66
2023/02/27 02:36:28;;;;;;;5.03;1.40;;;;;;;;;;5034189;28;20065;-65
2023/02/27 02:39:00;;;;;;;2.45;0.80;;;;;;;;;;5033709;28;20525;-65
2023/02/27 02:41:35;;;;;;;3.33;1.00;;;;;;;;;;5034173;28;20113;-65
2023/02/27 02:44:07;;;;;;;3.33;1.00;;;;;;;;;;5034171;28;20025;-65
2023/02/27 02:46:36;;;;;;;1.80;0.75;;;;;;;;;;5033764;28;20021;-65
2023/02/27 02:49:25;;;;;;;1.63;0.73;;;;;;;;;;5034108;28;20029;-65
2023/02/27 02:51:59;;;;;;;2.03;0.63;;;;;;;;;;5033490;28;20114;-65
2023/02/27 02:54:44;;;;;;;2.33;0.67;;;;;;;;;;5034728;28;20140;-66
2023/02/27 02:57:15;;;;;;;4.15;1.05;;;;;;;;;;5033817;28;20025;-65
2023/02/27 02:59:40;;;;;;;1.83;0.77;;;;;;;;;;5033398;28;20037;-66
2023/02/27 03:02:15;;;;;;;3.35;0.93;;;;;;;;;;5033649;28;20443;-65
2023/02/27 03:04:45;;;;;;;2.60;0.97;;;;;;;;;;5033919;28;20028;-65
2023/02/27 03:07:22;;;;;;;2.42;0.90;;;;;;;;;;5033590;28;20282;-65
2023/02/27 03:09:52;;;;;;;3.10;0.90;;;;;;;;;;5032416;28;20036;-65
2023/02/27 03:12:20;;;;;;;3.40;1.42;;;;;;;;;;5032308;28;20462;-65
2023/02/27 03:14:46;;;;;;;2.38;0.90;;;;;;;;;;5031724;28;20030;-65
2023/02/27 03:17:17;;;;;;;1.88;0.80;;;;;;;;;;5032288;28;20084;-65
2023/02/27 03:19:45;;;;;;;4.53;0.93;;;;;;;;;;5031944;28;20121;-66
2023/02/27 03:22:16;;;;;;;1.52;0.70;;;;;;;;;;5032111;28;20025;-65
2023/02/27 03:24:45;;;;;;;3.45;1.02;;;;;;;;;;5031507;28;20029;-64
2023/02/27 03:27:11;;;;;;;2.72;0.82;;;;;;;;;;5031678;28;20112;-66
2023/02/27 03:29:37;;;;;;;2.92;0.90;;;;;;;;;;5031977;28;20056;-66
2023/02/27 03:32:08;;;;;;;2.58;0.80;;;;;;;;;;5031267;28;20454;-65
2023/02/27 03:34:35;;;;;;;3.08;1.05;;;;;;;;;;5032091;28;20084;-66
2023/02/27 03:37:19;;;;;;;2.83;0.95;;;;;;;;;;5031542;28;20025;-66
2023/02/27 03:39:49;;;;;;;2.47;0.70;;;;;;;;;;5044536;28;20033;-66
2023/02/27 03:42:29;;;;;;;2.35;0.77;;;;;;;;;;5051991;28;20426;-66
2023/02/27 03:45:13;;;;;;;3.03;0.88;;;;;;;;;;5032186;28;20413;-67
2023/02/27 03:47:39;;;;;;;2.03;0.70;;;;;;;;;;5031644;28;20030;-66
2023/02/27 03:50:06;;;;;;;3.42;0.95;;;;;;;;;;5031964;28;20028;-66
2023/02/27 03:52:32;;;;;;;1.73;0.70;;;;;;;;;;5031986;28;20112;-67
2023/02/27 03:55:01;;;;;;;2.45;0.73;;;;;;;;;;5036222;28;20104;-66
2023/02/27 03:57:27;;;;;;;1.50;0.65;;;;;;;;;;5052113;28;20393;-67
2023/02/27 03:59:53;;;;;;;4.22;0.77;;;;;;;;;;5051543;28;20362;-67
2023/02/27 04:02:19;;;;;;;2.80;0.93;;;;;;;;;;5051625;28;20874;-65
2023/02/27 04:04:45;;;;;;;3.30;0.95;;;;;;;;;;5051374;28;20478;-65
2023/02/27 04:07:23;;;;;;;1.77;0.80;;;;;;;;;;5051745;28;20222;-65
2023/02/27 04:09:49;;;;;;;3.03;0.90;;;;;;;;;;5014037;28;1091083;-65
2023/02/27 04:12:15;;;;;;;1.70;0.70;;;;;;;;;;5052622;28;20025;-65
2023/02/27 04:15:13;;;;;;;3.50;1.20;;;;;;;;;;5051031;28;20449;-65
2023/02/27 04:17:50;;;;;;;2.28;0.73;;;;;;;;;;5016689;28;20561;-65
2023/02/27 04:20:29;;;;;;;1.63;0.60;;;;;;;;;;5024075;28;20092;-65
2023/02/27 04:23:02;;;;;;;3.55;1.10;;;;;;;;;;5030709;28;20025;-64
2023/02/27 04:25:36;;;;;;;2.63;0.63;;;;;;;;;;5031182;28;20409;-65
2023/02/27 04:28:16;;;;;;;2.50;0.77;;;;;;;;;;5031883;28;20029;-64
2023/02/27 04:30:49;;;;;;;3.20;1.08;;;;;;;;;;5030431;28;20080;-65
2023/02/27 04:33:15;;;;;;;3.03;0.95;;;;;;;;;;5031990;28;20576;-65
2023/02/27 04:35:50;;;;;;;1.92;0.82;;;;;;;;;;5031548;28;20033;-65
2023/02/27 04:38:22;;;;;;;2.28;0.95;;;;;;;;;;5031225;28;20021;-64
2023/02/27 04:40:52;;;;;;;3.78;1.10;;;;;;;;;;5030894;28;20041;-65
2023/02/27 04:43:19;;;;;;;2.90;0.70;;;;;;;;;;5031329;28;20040;-65
2023/02/27 04:45:46;;;;;;;4.10;1.15;;;;;;;;;;5031584;28;20120;-64
2023/02/27 04:48:20;;;;;;;2.58;0.70;;;;;;;;;;5031591;28;20482;-65
2023/02/27 04:50:50;;;;;;;4.15;0.90;;;;;;;;;;5031828;28;20021;-66
2023/02/27 04:53:21;;;;;;;2.30;0.85;;;;;;;;;;5031166;28;20076;-66
2023/02/27 04:55:50;;;;;;;2.20;0.93;;;;;;;;;;5031336;28;20018;-65
2023/02/27 04:58:22;;;;;;;3.08;0.77;;;;;;;;;;5030992;28;20028;-65
2023/02/27 05:00:52;;;;;;;2.50;1.00;;;;;;;;;;5030634;28;20071;-66
2023/02/27 05:03:21;;;;;;;4.72;0.70;;;;;;;;;;5031278;28;20482;-66
2023/02/27 05:05:48;;;;;;;2.58;0.80;;;;;;;;;;5031040;28;20037;-67
2023/02/27 05:08:25;;;;;;;2.33;0.90;;;;;;;;;;5030989;28;20506;-65
2023/02/27 05:10:56;;;;;;;2.38;0.70;;;;;;;;;;5034148;28;20496;-66
2023/02/27 05:13:29;;;;;;;2.63;0.75;;;;;;;;;;5036573;28;20021;-66
2023/02/27 05:16:02;;;;;;;2.80;0.82;;;;;;;;;;5035793;28;20040;-66
2023/02/27 05:18:28;;;;;;;3.47;1.50;;;;;;;;;;5031486;28;20026;-64
2023/02/27 05:21:00;;;;;;;2.60;0.70;;;;;;;;;;5030968;28;20037;-66
2023/02/27 05:23:32;;;;;;;2.33;0.80;;;;;;;;;;5031008;28;20010;-65
2023/02/27 05:26:01;;;;;;;2.35;0.90;;;;;;;;;;5030052;28;20492;-65
2023/02/27 05:28:32;;;;;;;3.17;0.73;;;;;;;;;;5029453;28;20405;-65
2023/02/27 05:31:07;;;;;;;3.33;1.02;;;;;;;;;;5030658;28;20183;-64
2023/02/27 05:33:41;;;;;;;2.10;0.80;;;;;;;;;;5031537;28;20045;-64
2023/02/27 05:36:10;;;;;;;4.63;1.25;;;;;;;;;;5030525;28;20036;-63
2023/02/27 05:38:40;;;;;;;3.72;0.75;;;;;;;;;;5030124;28;20048;-63
2023/02/27 05:41:38;;;;;;;2.20;0.85;;;;;;;;;;5030557;28;20029;-63
2023/02/27 05:44:13;;;;;;;3.97;0.80;;;;;;;;;;5029986;28;20037;-64
2023/02/27 05:46:43;;;;;;;4.03;1.10;;;;;;;;;;5030881;28;20025;-62
2023/02/27 05:49:22;;;;;;;3.55;0.82;;;;;;;;;;5030927;28;20394;-64
2023/02/27 05:51:49;;;;;;;3.70;0.90;;;;;;;;;;5030209;28;20073;-63
2023/02/27 05:54:19;;;;;;;4.20;1.20;;;;;;;;;;5030880;28;20108;-64
2023/02/27 05:56:46;;;;;;;3.70;0.90;;;;;;;;;;5030579;28;20029;-63
2023/02/27 05:59:18;;;;;;;9.65;1.17;;;;;;;;;;5031001;28;20041;-63
2023/02/27 06:01:44;;;;;;;3.92;0.80;;;;;;;;;;5029020;28;20053;-62
2023/02/27 06:04:10;;;;;;;3.28;1.00;;;;;;;;;;5031055;28;20111;-63
2023/02/27 06:06:37;;;;;;;4.10;0.95;;;;;;;;;;5030700;28;20477;-63
2023/02/27 06:09:03;;;;;;;3.33;1.05;;;;;;;;;;5030714;28;20025;-63
2023/02/27 06:11:29;;;;;;;3.40;0.93;;;;;;;;;;5029659;28;20063;-63
2023/02/27 06:13:55;;;;;;;3.05;0.80;;;;;;;;;;5045844;28;20533;-65
2023/02/27 06:16:21;;;;;;;7.57;1.02;;;;;;;;;;5046216;28;20033;-63
2023/02/27 06:18:47;;;;;;;4.20;1.20;;;;;;;;;;5030055;28;20029;-63
2023/02/27 06:21:13;;;;;;;3.17;0.70;;;;;;;;;;5030704;28;20129;-62
2023/02/27 06:23:39;;;;;;;6.53;1.25;;;;;;;;;;5029761;28;20090;-66
2023/02/27 06:26:05;;;;;;;4.65;0.93;;;;;;;;;;5030556;28;20490;-67
2023/02/27 06:28:31;;;;;;;5.70;1.73;;;;;;;;;;5030038;28;20394;-68
2023/02/27 06:30:57;;;;;;;8.85;1.35;;;;;;;;;;5030012;28;20030;-64
2023/02/27 06:33:26;;;;;;;3.95;0.85;;;;;;;;;;5029820;28;20075;-62
2023/02/27 06:35:52;;;;;;;3.53;0.95;;;;;;;;;;5029629;28;20021;-63
2023/02/27 06:38:18;;;;;;;5.47;1.35;;;;;;;;;;5029419;28;20026;-63
2023/02/27 06:40:44;;;;;;;3.63;1.15;;;;;;;;;;5030386;28;20051;-64
2023/02/27 06:43:10;;;;;;;3.50;1.05;;;;;;;;;;5030667;28;20029;-63
2023/02/27 06:45:36;;;;;;;4.55;1.30;;;;;;;;;;5030891;28;20366;-63
2023/02/27 06:48:02;;;;;;;7.40;1.58;;;;;;;;;;5030258;28;20026;-62
2023/02/27 06:50:28;;;;;;;3.90;1.80;;;;;;;;;;5030566;28;20033;-63
2023/02/27 06:52:54;;;;;;;3.78;1.40;;;;;;;;;;5030177;28;20533;-63
2023/02/27 06:55:21;;;;;;;5.40;1.50;;;;;;;;;;5030407;28;20082;-64
2023/02/27 06:57:48;;;;;;;4.88;1.52;;;;;;;;;;5030025;28;20492;-65
2023/02/27 07:00:14;;;;;;;5.65;1.25;;;;;;;;;;5030337;28;20037;-63
2023/02/27 07:02:40;;;;;;;6.40;2.00;;;;;;;;;;5031206;28;20496;-65
2023/02/27 07:05:07;;;;;;;3.65;1.13;;;;;;;;;;5034340;28;20025;-63
2023/02/27 07:07:33;;;;;;;7.07;1.30;;;;;;;;;;5033988;28;20053;-63
2023/02/27 07:09:59;;;;;;;4.43;1.40;;;;;;;;;;5033822;28;20052;-64
2023/02/27 07:12:25;;;;;;;4.38;1.10;;;;;;;;;;5034073;28;20026;-64
2023/02/27 07:14:51;;;;;;;6.97;1.65;;;;;;;;;;5033739;28;20540;-63
2023/02/27 07:17:17;;;;;;;4.60;1.33;;;;;;;;;;5033980;28;20044;-65
2023/02/27 07:19:44;;;;;;;2.65;1.10;;;;;;;;;;5033530;28;20473;-64
2023/02/27 07:22:10;;;;;;;5.05;1.30;;;;;;;;;;5033501;28;20084;-63
2023/02/27 07:24:36;;;;;;;4.43;1.30;;;;;;;;;;5033813;28;20315;-63
2023/02/27 07:27:02;;;;;;;3.67;1.13;;;;;;;;;;5033640;28;20024;-64
2023/02/27 07:29:28;;;;;;;4.95;1.00;;;;;;;;;;5033748;28;20029;-63
2023/02/27 07:31:54;;;;;;;4.75;1.50;;;;;;;;;;5033378;28;20029;-63
2023/02/27 07:34:20;;;;;;;3.70;1.10;;;;;;;;;;5033689;28;20478;-63
2023/02/27 07:36:46;;;;;;;3.25;1.20;;;;;;;;;;5033415;28;20024;-67
2023/02/27 07:39:12;;;;;;;2.92;1.02;;;;;;;;;;5033604;28;20029;-63
2023/02/27 07:41:38;;;;;;;8.23;1.67;;;;;;;;;;5034097;28;20377;-65
2023/02/27 07:44:07;;;;;;;4.47;1.65;;;;;;;;;;5033857;28;20029;-64
2023/02/27 07:46:33;;;;;;;3.58;1.17;;;;;;;;;;5033542;28;20029;-64
2023/02/27 07:48:59;;;;;;;3.65;1.20;;;;;;;;;;5033223;28;20416;-63
2023/02/27 07:51:25;;;;;;;3.40;1.15;;;;;;;;;;5033314;28;20563;-63
2023/02/27 07:53:51;;;;;;;4.22;1.45;;;;;;;;;;5033270;28;20109;-63
2023/02/27 07:56:17;;;;;;;5.75;1.00;;;;;;;;;;5033458;28;20096;-64
2023/02/27 07:58:43;;;;;;;3.72;1.20;;;;;;;;;;5032898;28;20034;-63
2023/02/27 08:01:09;;;;;;;4.80;1.27;;;;;;;;;;5033477;28;20036;-63
2023/02/27 08:03:35;;;;;;;3.97;1.13;;;;;;;;;;5033490;28;20100;-64
2023/02/27 08:06:01;;;;;;;6.18;1.13;;;;;;;;;;5032931;28;20026;-65
2023/02/27 08:08:28;;;;;;;4.93;1.38;;;;;;;;;;5032883;28;20021;-63
2023/02/27 08:10:54;;;;;;;5.22;1.55;;;;;;;;;;5031600;28;20117;-63
2023/02/27 08:13:21;;;;;;;5.47;1.17;;;;;;;;;;5032473;28;20092;-63
2023/02/27 08:15:47;;;;;;;4.40;1.25;;;;;;;;;;5032029;28;20034;-64
2023/02/27 08:18:13;;;;;;;3.40;1.23;;;;;;;;;;5032974;28;20017;-63
2023/02/27 08:20:39;;;;;;;3.53;1.13;;;;;;;;;;5032562;28;20067;-63
2023/02/27 08:23:05;;;;;;;3.40;1.00;;;;;;;;;;5032985;28;20477;-63
2023/02/27 08:25:31;;;;;;;2.97;1.00;;;;;;;;;;5032758;28;20029;-64
2023/02/27 08:27:57;;;;;;;4.05;1.20;;;;;;;;;;5032516;28;20026;-63
2023/02/27 08:30:23;;;;;;;2.25;1.02;;;;;;;;;;5032727;28;20469;-64
2023/02/27 08:32:49;;;;;;;3.50;1.40;;;;;;;;;;5032478;28;20032;-63
2023/02/27 08:35:15;;;;;;;4.75;1.17;;;;;;;;;;5032679;28;20025;-64
2023/02/27 08:37:41;;;;;;;3.55;1.35;;;;;;;;;;5032376;28;20036;-63
2023/02/27 08:40:09;;;;;;;2.75;0.90;;;;;;;;;;5032735;28;20033;-66
2023/02/27 08:42:35;;;;;;;2.55;1.20;;;;;;;;;;5032739;28;20032;-64
2023/02/27 08:45:01;;;;;;;3.70;1.15;;;;;;;;;;5032201;28;20025;-65
2023/02/27 08:47:27;;;;;;;4.53;1.50;;;;;;;;;;5032389;28;20029;-64
2023/02/27 08:49:55;;;;;;;4.47;1.10;;;;;;;;;;5031878;28;20159;-65
2023/02/27 08:52:21;;;;;;;2.00;0.95;;;;;;;;;;5032249;28;20033;-64
2023/02/27 08:54:47;;;;;;;2.67;1.02;;;;;;;;;;5032004;28;20025;-64
2023/02/27 08:57:13;;;;;;;2.85;1.10;;;;;;;;;;5032165;28;20071;-63
2023/02/27 08:59:39;;;;;;;4.43;1.50;;;;;;;;;;5032286;28;20389;-63
2023/02/27 09:02:05;;;;;;;3.28;1.38;;;;;;;;;;5032308;28;20025;-63
2023/02/27 09:04:31;;;;;;;4.07;1.55;;;;;;;;;;5031964;28;20029;-64
2023/02/27 09:06:57;;;;;;;3.97;1.45;;;;;;;;;;5031858;28;20106;-64
2023/02/27 09:09:23;;;;;;;4.00;1.40;;;;;;;;;;5031949;28;20037;-65
2023/02/27 09:11:50;;;;;;;3.03;1.15;;;;;;;;;;5031666;28;20025;-65
2023/02/27 09:14:16;;;;;;;2.42;0.85;;;;;;;;;;5031934;28;20412;-65
2023/02/27 09:16:42;;;;;;;3.75;1.30;;;;;;;;;;5031505;28;20018;-64
2023/02/27 09:19:08;;;;;;;2.55;1.23;;;;;;;;;;5030797;28;20045;-64
2023/02/27 09:21:36;;;;;;;3.63;1.30;;;;;;;;;;5032073;28;20028;-63
2023/02/27 09:24:02;;;;;;;4.25;1.20;;;;;;;;;;5031375;28;20390;-67
2023/02/27 09:26:28;;;;;;;2.85;1.00;;;;;;;;;;5031265;28;20029;-64
2023/02/27 09:28:54;;;;;;;2.83;1.20;;;;;;;;;;5031475;28;20022;-63
2023/02/27 09:31:20;;;;;;;2.63;1.08;;;;;;;;;;5031516;28;20554;-63
2023/02/27 09:33:46;;;;;;;4.45;1.33;;;;;;;;;;5031459;28;20029;-68
2023/02/27 09:36:12;;;;;;;2.95;1.20;;;;;;;;;;5031638;28;20070;-64
2023/02/27 09:38:38;;;;;;;1.92;0.93;;;;;;;;;;5031665;28;20032;-64
2023/02/27 09:41:05;;;;;;;3.65;1.40;;;;;;;;;;5031676;28;20425;-64
2023/02/27 09:43:31;;;;;;;3.83;1.33;;;;;;;;;;5031470;28;20025;-64
2023/02/27 09:45:57;;;;;;;3.97;1.35;;;;;;;;;;5031158;28;20359;-63
2023/02/27 09:48:44;;;;;;;3.40;1.13;;;;;;;;;;5031326;28;20021;-63
2023/02/27 09:51:10;;;;;;;3.10;1.35;;;;;;;;;;5030668;28;20056;-63
2023/02/27 09:53:38;;;;;;;3.78;1.40;;;;;;;;;;5031555;28;20101;-63
2023/02/27 09:56:09;;;;;;;4.45;1.40;;;;;;;;;;5031515;28;20034;-63
2023/02/27 09:58:38;;;;;;;3.88;1.48;;;;;;;;;;5031448;28;20106;-63
2023/02/27 10:01:09;;;;;;;2.65;0.93;;;;;;;;;;5031066;28;20108;-63
2023/02/27 10:03:55;;;;;;;4.20;1.00;;;;;;;;;;5031550;28;20512;-63
2023/02/27 10:06:24;;;;;;;3.08;1.15;;;;;;;;;;5030066;28;20034;-63
2023/02/27 10:09:09;;;;;;;2.80;1.00;;;;;;;;;;5030693;28;20053;-62
2023/02/27 10:11:47;;;;;;;2.60;1.00;;;;;;;;;;5031433;28;20371;-62
2023/02/27 10:14:29;;;;;;;3.35;0.90;;;;;;;;;;5031126;28;20068;-62
2023/02/27 10:16:56;;;;;;;3.67;0.93;;;;;;;;;;5030884;28;20053;-62
2023/02/27 10:19:28;;;;;;;2.63;1.10;;;;;;;;;;5030856;28;20401;-62
2023/02/27 10:21:56;;;;;;;2.88;1.00;;;;;;;;;;5030811;28;20060;-62
2023/02/27 10:24:27;;;;;;;4.15;1.35;;;;;;;;;;5031120;28;20025;-64
2023/02/27 10:26:53;;;;;;;2.33;1.10;;;;;;;;;;5030576;28;20492;-64
2023/02/27 10:29:19;;;;;;;2.45;1.00;;;;;;;;;;5030912;28;20026;-63
2023/02/27 10:31:47;;;;;;;1.58;0.73;;;;;;;;;;5030621;28;20033;-63
2023/02/27 10:34:15;;;;;;;2.35;1.00;;;;;;;;;;5030976;28;20025;-63
2023/02/27 10:36:42;;;;;;;3.15;0.95;;;;;;;;;;5030663;28;20034;-63
2023/02/27 10:39:11;;;;;;;3.70;1.23;;;;;;;;;;5034625;28;20092;-62
2023/02/27 10:41:37;;;;;;;2.80;0.95;;;;;;;;;;5035029;28;20033;-62
2023/02/27 10:44:04;;;;;;;3.67;0.93;;;;;;;;;;5034504;28;20025;-62
2023/02/27 10:46:31;;;;;;;3.33;1.40;;;;;;;;;;5034609;28;20065;-64
2023/02/27 10:49:04;;;;;;;3.45;0.88;;;;;;;;;;5034437;28;20049;-63
2023/02/27 10:51:33;;;;;;;2.45;1.05;;;;;;;;;;5034611;28;20068;-63
2023/02/27 10:54:16;;;;;;;2.65;0.98;;;;;;;;;;5034299;28;20045;-65
2023/02/27 10:56:45;;;;;;;5.45;1.10;;;;;;;;;;5034161;28;20026;-64
2023/02/27 10:59:28;;;;;;;3.55;1.10;;;;;;;;;;5034455;28;20037;-63
2023/02/27 11:01:54;;;;;;;3.20;0.88;;;;;;;;;;5034212;28;20032;-62
2023/02/27 11:04:24;;;;;;;2.55;0.88;;;;;;;;;;5034382;28;20025;-62
2023/02/27 11:06:53;;;;;;;2.40;0.80;;;;;;;;;;5034151;28;20025;-62
2023/02/27 11:09:22;;;;;;;2.03;0.90;;;;;;;;;;5033978;28;20034;-63
2023/02/27 11:11:49;;;;;;;2.30;0.80;;;;;;;;;;5033962;28;20029;-64
2023/02/27 11:14:23;;;;;;;2.63;0.98;;;;;;;;;;5034155;28;20032;-63
2023/02/27 11:16:51;;;;;;;2.10;1.00;;;;;;;;;;5033860;28;20033;-64
2023/02/27 11:19:25;;;;;;;4.10;1.40;;;;;;;;;;5033944;28;20724;-63
2023/02/27 11:22:13;;;;;;;3.65;1.20;;;;;;;;;;5033768;28;20025;-63
2023/02/27 11:24:39;;;;;;;2.90;1.10;;;;;;;;;;5034393;28;20029;-63
2023/02/27 11:27:17;;;;;;;1.83;0.90;;;;;;;;;;5034230;28;20029;-63
2023/02/27 11:30:04;;;;;;;2.25;0.95;;;;;;;;;;5033617;28;20453;-63
2023/02/27 11:32:44;;;;;;;2.97;0.93;;;;;;;;;;5033720;28;20088;-63
2023/02/27 11:35:36;;;;;;;2.15;1.08;;;;;;;;;;5033819;28;20026;-63
2023/02/27 11:38:04;;;;;;;2.75;1.25;;;;;;;;;;5033115;28;20045;-64
2023/02/27 11:40:31;;;;;;;3.25;1.40;;;;;;;;;;5033426;28;20033;-63
2023/02/27 11:43:17;;;;;;;2.92;1.30;;;;;;;;;;5033180;28;20057;-63
2023/02/27 11:45:49;;;;;;;2.50;0.90;;;;;;;;;;5033434;28;20390;-63
2023/02/27 11:48:23;;;;;;;1.90;0.93;;;;;;;;;;5033331;28;20084;-63
2023/02/27 11:51:07;;;;;;;3.17;1.10;;;;;;;;;;5033187;28;20029;-63
2023/02/27 11:53:41;;;;;;;2.45;0.77;;;;;;;;;;5033492;28;20053;-63
2023/02/27 11:56:10;;;;;;;1.73;0.80;;;;;;;;;;5033686;28;20087;-63
2023/02/27 11:58:42;;;;;;;1.52;0.68;;;;;;;;;;5033457;28;20025;-63
2023/02/27 12:01:15;;;;;;;2.92;0.95;;;;;;;;;;5033599;28;20037;-64
2023/02/27 12:03:50;;;;;;;3.30;1.00;;;;;;;;;;5033125;28;20026;-63
2023/02/27 12:06:18;;;;;;;2.22;0.80;;;;;;;;;;5033186;28;20034;-64
2023/02/27 12:08:50;;;;;;;1.90;0.80;;;;;;;;;;5032986;28;20061;-63
2023/02/27 12:11:31;;;;;;;3.60;1.10;;;;;;;;;;5033061;28;20022;-65
2023/02/27 12:14:20;;;;;;;2.33;1.17;;;;;;;;;;5032741;28;20029;-63
2023/02/27 12:16:50;;;;;;;2.40;0.82;;;;;;;;;;5032424;28;20040;-65
2023/02/27 12:19:29;;;;;;;1.35;0.70;;;;;;;;;;5032981;28;20030;-63
2023/02/27 12:21:57;;;;;;;3.30;0.98;;;;;;;;;;5032649;28;20064;-63
2023/02/27 12:24:30;;;;;;;1.33;0.70;;;;;;;;;;5032840;28;20032;-63
2023/02/27 12:27:01;;;;;;;2.05;0.80;;;;;;;;;;5032560;28;20029;-63
2023/02/27 12:29:39;;;;;;;3.13;0.80;;;;;;;;;;5032785;28;20037;-65
2023/02/27 12:32:22;;;;;;;2.35;1.00;;;;;;;;;;5032960;28;20084;-65
2023/02/27 12:34:51;;;;;;;1.92;0.80;;;;;;;;;;5032447;28;20508;-67
2023/02/27 12:37:27;;;;;;;2.92;0.80;;;;;;;;;;5031368;28;20540;-66
2023/02/27 12:39:55;;;;;;;2.00;0.95;;;;;;;;;;5031875;28;20036;-65
2023/02/27 12:42:24;;;;;;;1.67;0.70;;;;;;;;;;5032500;28;20032;-64
2023/02/27 12:45:09;;;;;;;1.95;0.90;;;;;;;;;;5032111;28;20022;-65
2023/02/27 12:47:53;;;;;;;2.28;0.65;;;;;;;;;;5032591;28;20501;-69
2023/02/27 12:50:21;;;;;;;3.33;0.85;;;;;;;;;;5032335;28;20156;-65
2023/02/27 12:52:56;;;;;;;1.00;0.60;;;;;;;;;;5031951;28;20104;-67
2023/02/27 12:55:25;;;;;;;1.52;0.70;;;;;;;;;;5032029;28;20079;-66
2023/02/27 12:57:51;;;;;;;2.35;1.05;;;;;;;;;;5032111;28;20021;-66
2023/02/27 13:00:17;;;;;;;2.92;0.50;;;;;;;;;;5031353;28;20403;-67
2023/02/27 13:02:52;;;;;;;1.58;0.68;;;;;;;;;;5031818;28;20498;-64
2023/02/27 13:05:21;;;;;;;2.22;0.80;;;;;;;;;;5031959;28;20478;-68
2023/02/27 13:08:06;;;;;;;1.50;0.60;;;;;;;;;;5031800;28;20060;-65
2023/02/27 13:10:50;;;;;;;2.15;0.82;;;;;;;;;;5031614;28;20406;-65
2023/02/27 13:13:27;;;;;;;2.13;0.73;;;;;;;;;;5031905;28;20079;-65
2023/02/27 13:15:55;;;;;;;1.08;0.50;;;;;;;;;;5031508;28;20025;-64
2023/02/27 13:18:21;;;;;;;2.28;1.10;;;;;;;;;;5031719;28;20378;-65
2023/02/27 13:20:50;;;;;;;1.77;0.60;;;;;;;;;;5031551;28;20044;-64
2023/02/27 13:23:23;;;;;;;1.85;0.70;;;;;;;;;;5031692;28;20100;-65
2023/02/27 13:25:50;;;;;;;2.50;0.70;;;;;;;;;;5031231;28;20558;-64
2023/02/27 13:28:19;;;;;;;3.03;0.70;;;;;;;;;;5031638;28;20068;-64
2023/02/27 13:30:50;;;;;;;1.55;0.70;;;;;;;;;;5031323;28;20397;-64
2023/02/27 13:33:19;;;;;;;2.08;0.85;;;;;;;;;;5031605;28;20022;-64
2023/02/27 13:36:03;;;;;;;1.55;0.65;;;;;;;;;;5031334;28;20032;-64
2023/02/27 13:38:33;;;;;;;2.65;0.77;;;;;;;;;;5031346;28;20033;-63
2023/02/27 13:41:18;;;;;;;1.27;0.73;;;;;;;;;;5031248;28;20033;-64
2023/02/27 13:43:44;;;;;;;1.77;0.90;;;;;;;;;;5031243;28;20539;-64
2023/02/27 13:46:23;;;;;;;0.77;0.52;;;;;;;;;;5031437;28;20026;-64
2023/02/27 13:48:53;;;;;;;1.95;0.60;;;;;;;;;;5031185;28;20026;-65
2023/02/27 13:51:34;;;;;;;2.13;0.50;;;;;;;;;;5031358;28;20494;-64
2023/02/27 13:54:12;;;;;;;1.95;0.80;;;;;;;;;;5031070;28;20025;-64
2023/02/27 13:56:47;;;;;;;2.28;0.82;;;;;;;;;;5031521;28;20025;-65
2023/02/27 13:59:40;;;;;;;1.55;0.68;;;;;;;;;;5031148;28;20021;-64
2023/02/27 14:02:10;;;;;;;1.40;0.73;;;;;;;;;;5030215;28;20034;-65
2023/02/27 14:04:47;;;;;;;0.70;0.50;;;;;;;;;;5031491;28;20026;-63
2023/02/27 14:07:17;;;;;;;2.08;0.60;;;;;;;;;;5031336;28;20021;-64
2023/02/27 14:09:44;;;;;;;1.42;0.60;;;;;;;;;;5030852;28;20493;-64
2023/02/27 14:12:31;;;;;;;1.70;0.70;;;;;;;;;;5033218;28;20029;-63
2023/02/27 14:14:57;;;;;;;1.85;0.52;;;;;;;;;;5035054;28;20022;-64
2023/02/27 14:17:35;;;;;;;1.33;0.60;;;;;;;;;;5035199;28;20090;-64
2023/02/27 14:20:23;;;;;;;1.75;0.80;;;;;;;;;;5034978;28;20033;-64
2023/02/27 14:23:08;;;;;;;1.52;0.55;;;;;;;;;;5030943;28;20045;-63
2023/02/27 14:25:42;;;;;;;1.10;0.40;;;;;;;;;;5035375;28;20021;-64
2023/02/27 14:28:15;;;;;;;2.13;0.70;;;;;;;;;;5035261;28;20029;-65
2023/02/27 14:30:43;;;;;;;1.90;0.80;;;;;;;;;;5034725;28;20024;-64
2023/02/27 14:33:42;;;;;;;1.25;0.60;;;;;;;;;;5034958;28;20478;-64
2023/02/27 14:36:13;;;;;;;1.38;0.50;;;;;;;;;;5022392;28;20045;-64
2023/02/27 14:38:39;;;;;;;3.35;0.70;;;;;;;;;;5034212;28;20026;-64
2023/02/27 14:41:06;;;;;;;1.25;0.57;;;;;;;;;;5034776;28;20041;-65
2023/02/27 14:43:38;;;;;;;1.92;0.70;;;;;;;;;;5034573;28;20029;-64
2023/02/27 14:46:30;;;;;;;1.98;0.57;;;;;;;;;;5034662;28;20025;-64
2023/02/27 14:48:57;;;;;;;1.33;0.60;;;;;;;;;;5033126;28;20175;-64
2023/02/27 14:51:24;;;;;;;1.60;0.60;;;;;;;;;;5034566;28;20441;-64
2023/02/27 14:53:59;;;;;;;1.70;0.50;;;;;;;;;;5034261;28;20052;-67
2023/02/27 14:56:25;;;;;;;1.73;0.70;;;;;;;;;;5034273;28;20029;-64
2023/02/27 14:58:52;;;;;;;1.88;0.55;;;;;;;;;;5034054;28;20040;-64
2023/02/27 15:01:19;;;;;;;1.15;0.45;;;;;;;;;;5034430;28;20029;-63
2023/02/27 15:03:45;;;;;;;1.00;0.50;;;;;;;;;;5033991;28;20037;-63